Portada
METAR-TAF:

METAR-TAF

Aeropuertos :

Kahramanmaraş, Turquía

latitud: 37-32-20N, longitud: 036-57-12E, altitud: 525 m

Observación

El informe se hizo hace 48 minutos, a las 12:50 UTC
Viento 3 kt del sur-suroeste
Temperatura 11°C
Humedad 71%
Presión 1019 hPa
Visibilidad 10 km o más
Nubes dispersas a una altura de 3500 ft
Cielo nuboso a una altura de 10000 ft

METAR: LTCN 061250Z 20003KT 9999 SCT035 BKN100 11/06 Q1019 NOSIG

Hora: 16:38 (13:38 UTC)

Pronóstico

El informe se hizo hace 2 horas y 58 minutos, a las 10:40 UTC
Pronóstico válido del 06 a las 12 UTC al 06 a las 21 UTC
Viento 2 kt con dirección variable
Visibilidad 10 km o más
Nubes dispersas a una altura de 3500 ft
Cielo nuboso a una altura de 10000 ft

TAF: LTCN 061040Z 0612/0621 VRB02KT 9999 SCT035 BKN100

Observaciones y pronósticos meteorológicos de más de 4000 aeropuertos (mensajes METAR y TAF).

Los puntos amarillos y rojos representan las estaciones disponibles.

Ponga el ratón en el punto deseado para ver el nombre de la estación.

Haga clic para ver las observaciones y los pronósticos meteorológicos.

Para cambiar el mapa : haga clic en los botones verdes con una cruz de color negro para hacer un zoom, en el botón verde con un guión para alejar o en las flechas verdes para mapas adyacentes.


METAR-TAF: